Time;durP1;ratioP1;P1;durP2;ratioP2;P2;SDS_P1;SDS_P2;PMS_P1;PMS_P2;Temp;Humidity;BMP_temperature;BMP_pressure;BME280_temperature;BME280_humidity;BME280_pressure;Samples;Min_cycle;Max_cycle;Signal;HPM_P1;HPM_P2
2022/01/18 00:01:42;;;;;;;;;69.00;56.00;;;;;;;;5007209;28;45345;-81
2022/01/18 00:04:07;;;;;;;;;67.00;54.33;;;;;;;;5006611;28;45270;-80
2022/01/18 00:06:33;;;;;;;;;71.00;56.33;;;;;;;;5007305;28;45312;-80
2022/01/18 00:08:58;;;;;;;;;70.25;54.50;;;;;;;;5007695;28;45283;-80
2022/01/18 00:11:26;;;;;;;;;64.33;51.67;;;;;;;;5007304;28;45220;-81
2022/01/18 00:13:59;;;;;;;;;69.75;56.25;;;;;;;;5007826;28;45548;-80
2022/01/18 00:18:54;;;;;;;;;64.75;53.75;;;;;;;;5008014;28;45286;-81
2022/01/18 00:23:57;;;;;;;;;67.25;54.50;;;;;;;;5009203;28;45542;-80
2022/01/18 00:26:26;;;;;;;;;66.25;55.00;;;;;;;;5010900;28;45342;-80
2022/01/18 00:28:56;;;;;;;;;63.75;52.50;;;;;;;;5011463;28;45108;-81
2022/01/18 00:34:10;;;;;;;;;64.00;52.25;;;;;;;;5010612;28;45519;-80
2022/01/18 00:39:05;;;;;;;;;69.00;57.00;;;;;;;;4995472;28;45613;-80
2022/01/18 00:41:30;;;;;;;;;66.00;53.75;;;;;;;;4986561;28;45862;-80
2022/01/18 00:43:56;;;;;;;;;66.75;54.50;;;;;;;;5011037;28;45371;-79
2022/01/18 00:46:21;;;;;;;;;64.67;53.67;;;;;;;;5010524;28;45607;-80
2022/01/18 00:48:46;;;;;;;;;60.25;46.25;;;;;;;;5009746;28;45230;-81
2022/01/18 00:51:13;;;;;;;;;67.67;55.00;;;;;;;;5009860;28;45162;-81
2022/01/18 00:53:40;;;;;;;;;67.00;53.75;;;;;;;;5010197;28;45428;-81
2022/01/18 00:58:31;;;;;;;;;65.25;52.00;;;;;;;;5010801;28;45051;-81
2022/01/18 01:00:56;;;;;;;;;65.33;55.00;;;;;;;;4992830;28;45269;-80
2022/01/18 01:03:21;;;;;;;;;66.67;53.33;;;;;;;;4993036;28;46658;-81
2022/01/18 01:05:46;;;;;;;;;59.00;49.00;;;;;;;;5010678;28;45053;-80
2022/01/18 01:08:12;;;;;;;;;56.00;47.33;;;;;;;;4991996;28;45177;-78
2022/01/18 01:10:37;;;;;;;;;58.67;47.33;;;;;;;;5009542;28;45128;-81
2022/01/18 01:13:03;;;;;;;;;56.00;46.33;;;;;;;;4991097;28;47061;-80
2022/01/18 01:15:31;;;;;;;;;62.00;50.50;;;;;;;;5009644;28;45139;-81
2022/01/18 01:18:30;;;;;;;;;58.00;49.00;;;;;;;;4992083;28;45192;-81
2022/01/18 01:34:50;;;;;;;;;58.50;46.75;;;;;;;;5009101;28;45535;-80
2022/01/18 01:42:43;;;;;;;;;55.25;46.75;;;;;;;;5000476;28;45058;-80
2022/01/18 01:45:10;;;;;;;;;68.00;50.00;;;;;;;;4997587;28;46266;-80
2022/01/18 01:47:37;;;;;;;;;64.25;50.50;;;;;;;;5000277;28;45561;-80
2022/01/18 01:50:08;;;;;;;;;58.25;49.00;;;;;;;;5006173;28;45251;-81
2022/01/18 01:52:33;;;;;;;;;62.25;50.50;;;;;;;;5009807;28;45196;-81
2022/01/18 01:54:59;;;;;;;;;62.25;52.00;;;;;;;;4995408;28;46142;-80
2022/01/18 01:57:24;;;;;;;;;59.75;48.50;;;;;;;;5000655;28;45427;-81
2022/01/18 01:59:49;;;;;;;;;64.50;51.75;;;;;;;;4997954;28;45419;-80
2022/01/18 02:02:15;;;;;;;;;48.67;41.00;;;;;;;;4974331;28;45532;-80
2022/01/18 02:04:40;;;;;;;;;44.33;41.00;;;;;;;;4995932;28;46099;-81
2022/01/18 02:07:06;;;;;;;;;39.50;34.50;;;;;;;;4975989;28;45762;-80
2022/01/18 02:09:31;;;;;;;;;36.50;32.50;;;;;;;;4990829;28;45543;-80
2022/01/18 02:11:58;;;;;;;;;41.67;33.67;;;;;;;;4976807;28;45512;-80
2022/01/18 02:14:24;;;;;;;;;33.00;29.75;;;;;;;;4997671;28;46433;-81
2022/01/18 02:22:18;;;;;;;;;36.25;33.00;;;;;;;;5008574;28;45104;-80
2022/01/18 02:24:43;;;;;;;;;37.33;34.67;;;;;;;;5006498;28;45404;-81
2022/01/18 02:27:08;;;;;;;;;42.00;34.00;;;;;;;;4987476;28;45734;-80
2022/01/18 02:29:34;;;;;;;;;42.67;34.33;;;;;;;;5000899;28;45206;-81
2022/01/18 02:31:59;;;;;;;;;29.75;28.50;;;;;;;;4987024;28;45560;-81
2022/01/18 02:34:25;;;;;;;;;35.00;30.67;;;;;;;;5008946;28;46434;-81
2022/01/18 02:36:53;;;;;;;;;31.75;29.75;;;;;;;;4989550;28;45193;-81
2022/01/18 02:39:19;;;;;;;;;32.50;31.00;;;;;;;;5008287;28;45260;-80
2022/01/18 02:41:51;;;;;;;;;28.50;28.25;;;;;;;;5009348;28;45002;-81
2022/01/18 02:44:16;;;;;;;;;39.00;32.50;;;;;;;;5005649;28;47239;-80
2022/01/18 02:46:44;;;;;;;;;30.00;28.33;;;;;;;;4990122;28;45072;-81
2022/01/18 02:49:09;;;;;;;;;32.75;29.25;;;;;;;;4990905;28;45213;-81
2022/01/18 02:51:35;;;;;;;;;33.33;27.67;;;;;;;;5008135;28;46237;-81
2022/01/18 02:54:08;;;;;;;;;27.00;22.67;;;;;;;;5008944;28;46046;-81
2022/01/18 02:56:41;;;;;;;;;33.00;28.00;;;;;;;;5009056;28;45077;-81
2022/01/18 02:59:23;;;;;;;;;36.75;27.75;;;;;;;;5007981;28;45302;-80
2022/01/18 03:04:37;;;;;;;;;26.50;25.50;;;;;;;;5008895;28;45409;-81
2022/01/18 03:07:02;;;;;;;;;30.00;26.25;;;;;;;;5008433;28;45289;-80
2022/01/18 03:09:28;;;;;;;;;30.67;28.00;;;;;;;;5001170;28;45344;-81
2022/01/18 03:11:53;;;;;;;;;33.67;29.33;;;;;;;;5008362;28;45235;-80
2022/01/18 03:14:18;;;;;;;;;28.25;24.75;;;;;;;;5007982;28;45582;-81
2022/01/18 03:16:43;;;;;;;;;32.00;29.33;;;;;;;;5008683;28;45067;-80
2022/01/18 03:19:09;;;;;;;;;24.33;21.67;;;;;;;;5008736;28;45106;-81
2022/01/18 03:21:34;;;;;;;;;23.67;23.33;;;;;;;;5004814;28;45377;-81
2022/01/18 03:24:13;;;;;;;;;32.00;25.00;;;;;;;;5008223;28;45548;-80
2022/01/18 03:28:04;;;;;;;;;26.50;23.50;;;;;;;;5008789;28;45176;-81
2022/01/18 03:29:24;;;;;;;;;32.75;26.25;;;;;;;;5005241;28;45574;-81
2022/01/18 03:31:49;;;;;;;;;34.00;31.00;;;;;;;;5006209;28;45299;-80
2022/01/18 03:34:14;;;;;;;;;29.25;27.25;;;;;;;;5008418;28;45619;-81
2022/01/18 03:36:40;;;;;;;;;32.67;27.67;;;;;;;;5007929;28;45305;-81
2022/01/18 03:39:06;;;;;;;;;33.00;31.00;;;;;;;;5006201;28;45445;-81
2022/01/18 03:41:31;;;;;;;;;33.25;28.75;;;;;;;;5008621;28;45038;-81
2022/01/18 03:43:56;;;;;;;;;27.33;25.67;;;;;;;;5007891;28;45222;-81
2022/01/18 03:46:24;;;;;;;;;32.33;29.00;;;;;;;;5008185;28;45101;-80
2022/01/18 03:48:51;;;;;;;;;31.50;30.00;;;;;;;;4989788;28;45148;-81
2022/01/18 03:51:16;;;;;;;;;37.75;31.75;;;;;;;;5006892;28;45213;-81
2022/01/18 03:53:41;;;;;;;;;33.67;27.67;;;;;;;;4989859;28;47687;-80
2022/01/18 03:56:07;;;;;;;;;32.00;30.67;;;;;;;;5006902;28;45134;-81
2022/01/18 03:58:34;;;;;;;;;35.50;32.25;;;;;;;;5007806;28;45056;-81
2022/01/18 04:00:59;;;;;;;;;30.50;26.50;;;;;;;;4993422;28;45196;-80
2022/01/18 04:03:24;;;;;;;;;29.50;27.50;;;;;;;;4991118;28;46079;-81
2022/01/18 04:05:52;;;;;;;;;29.25;26.50;;;;;;;;5010657;28;45144;-81
2022/01/18 04:08:17;;;;;;;;;39.75;34.75;;;;;;;;4992977;28;46450;-81
2022/01/18 04:10:43;;;;;;;;;34.50;30.50;;;;;;;;5011933;28;45022;-81
2022/01/18 04:13:09;;;;;;;;;27.50;26.00;;;;;;;;5010778;28;45384;-81
2022/01/18 04:15:34;;;;;;;;;40.75;34.50;;;;;;;;5008382;28;44994;-81
2022/01/18 04:18:09;;;;;;;;;37.25;31.25;;;;;;;;5011281;28;45093;-81
2022/01/18 04:26:52;;;;;;;;;39.25;36.75;;;;;;;;4991304;28;45436;-81
2022/01/18 04:28:48;;;;;;;;;43.50;35.50;;;;;;;;4996614;28;45503;-81
2022/01/18 04:31:13;;;;;;;;;38.25;36.25;;;;;;;;5000809;28;45367;-80
2022/01/18 04:33:39;;;;;;;;;39.67;35.33;;;;;;;;5002886;28;46062;-81
2022/01/18 04:36:05;;;;;;;;;32.75;31.00;;;;;;;;4981063;28;45420;-81
2022/01/18 04:38:30;;;;;;;;;34.50;27.00;;;;;;;;4984492;28;45405;-81
2022/01/18 04:41:03;;;;;;;;;40.33;36.00;;;;;;;;4995565;28;45398;-80
2022/01/18 04:48:57;;;;;;;;;36.00;29.75;;;;;;;;5010272;28;45485;-81
2022/01/18 04:51:22;;;;;;;;;41.00;37.50;;;;;;;;5010077;28;45021;-81
2022/01/18 04:53:55;;;;;;;;;37.33;34.00;;;;;;;;4992847;28;47858;-81
2022/01/18 04:58:59;;;;;;;;;41.25;36.50;;;;;;;;5007233;28;45340;-81
2022/01/18 05:01:24;;;;;;;;;37.25;35.00;;;;;;;;4992645;28;45077;-81
2022/01/18 05:03:49;;;;;;;;;32.67;31.67;;;;;;;;4992566;28;47325;-80
2022/01/18 05:06:18;;;;;;;;;35.67;31.67;;;;;;;;4991561;28;45145;-81
2022/01/18 05:08:43;;;;;;;;;30.50;28.25;;;;;;;;5010494;28;45434;-80
2022/01/18 05:11:13;;;;;;;;;32.33;31.33;;;;;;;;4988628;28;45284;-81
2022/01/18 05:24:14;;;;;;;;;37.25;33.50;;;;;;;;4985762;28;45380;-81
2022/01/18 05:26:40;;;;;;;;;36.33;33.67;;;;;;;;4992562;28;45603;-81
2022/01/18 05:29:05;;;;;;;;;37.75;33.75;;;;;;;;5010320;28;45088;-81
2022/01/18 05:31:31;;;;;;;;;41.00;32.67;;;;;;;;5009919;28;45320;-80
2022/01/18 05:33:56;;;;;;;;;43.00;36.67;;;;;;;;4991901;28;47193;-81
2022/01/18 05:36:21;;;;;;;;;41.00;35.67;;;;;;;;5008945;28;45215;-81
2022/01/18 05:38:47;;;;;;;;;45.67;37.00;;;;;;;;5009182;28;44982;-81
2022/01/18 05:41:12;;;;;;;;;50.25;42.00;;;;;;;;4987150;28;45157;-81
2022/01/18 05:43:37;;;;;;;;;46.50;36.00;;;;;;;;4991660;28;46966;-80
2022/01/18 05:46:03;;;;;;;;;47.67;39.33;;;;;;;;5004849;28;45365;-82
2022/01/18 05:48:28;;;;;;;;;42.50;36.50;;;;;;;;4991214;28;45221;-81
2022/01/18 05:50:59;;;;;;;;;42.00;35.00;;;;;;;;5008896;28;45042;-81
2022/01/18 05:53:24;;;;;;;;;41.50;36.75;;;;;;;;5008395;28;45683;-80
2022/01/18 05:55:50;;;;;;;;;40.00;37.25;;;;;;;;5009954;28;45208;-81
2022/01/18 05:58:15;;;;;;;;;46.00;41.33;;;;;;;;4991207;28;45161;-81
2022/01/18 06:00:41;;;;;;;;;38.33;34.33;;;;;;;;5003651;28;45266;-81
2022/01/18 06:03:18;;;;;;;;;35.00;34.75;;;;;;;;5029049;28;45826;-81
2022/01/18 06:08:27;;;;;;;;;35.50;32.00;;;;;;;;5028355;28;45543;-81
2022/01/18 06:10:52;;;;;;;;;31.00;29.00;;;;;;;;4995545;28;45299;-81
2022/01/18 06:13:18;;;;;;;;;31.00;26.33;;;;;;;;5008827;28;45445;-81
2022/01/18 06:15:43;;;;;;;;;34.25;29.50;;;;;;;;5009499;28;45014;-81
2022/01/18 06:18:09;;;;;;;;;34.50;30.00;;;;;;;;5009366;28;45007;-81
2022/01/18 06:20:35;;;;;;;;;32.25;24.00;;;;;;;;5006898;28;45418;-80
2022/01/18 06:23:00;;;;;;;;;40.67;33.67;;;;;;;;4984612;28;47788;-81
2022/01/18 06:25:25;;;;;;;;;33.00;28.25;;;;;;;;4986841;28;45354;-80
2022/01/18 06:27:53;;;;;;;;;28.00;24.75;;;;;;;;4991678;28;45433;-80
2022/01/18 06:30:18;;;;;;;;;35.00;24.00;;;;;;;;5007145;28;45474;-80
2022/01/18 06:32:44;;;;;;;;;33.50;30.75;;;;;;;;4992669;28;45911;-81
2022/01/18 06:35:10;;;;;;;;;41.50;33.25;;;;;;;;4988818;28;45161;-80
2022/01/18 06:37:36;;;;;;;;;28.25;25.75;;;;;;;;5009255;28;45140;-81
2022/01/18 06:40:03;;;;;;;;;29.75;26.50;;;;;;;;5008851;28;45051;-81
2022/01/18 06:42:29;;;;;;;;;31.75;30.50;;;;;;;;4990854;28;47944;-81
2022/01/18 06:44:54;;;;;;;;;35.25;28.50;;;;;;;;5009003;28;45065;-81
2022/01/18 06:47:19;;;;;;;;;31.67;30.00;;;;;;;;5008566;28;44974;-81
2022/01/18 06:49:45;;;;;;;;;38.00;28.00;;;;;;;;5009069;28;45251;-81
2022/01/18 06:52:10;;;;;;;;;27.25;25.75;;;;;;;;5008481;28;45278;-81
2022/01/18 06:54:35;;;;;;;;;36.33;31.67;;;;;;;;5007438;28;45160;-80
2022/01/18 06:57:00;;;;;;;;;32.00;28.00;;;;;;;;5008804;28;45060;-81
2022/01/18 06:59:26;;;;;;;;;32.67;30.67;;;;;;;;5008254;28;45149;-81
2022/01/18 07:01:51;;;;;;;;;34.33;29.67;;;;;;;;5003921;28;47009;-80
2022/01/18 07:04:16;;;;;;;;;32.00;28.33;;;;;;;;4973590;28;45451;-80
2022/01/18 07:06:41;;;;;;;;;34.00;28.67;;;;;;;;4994754;28;45403;-80
2022/01/18 07:09:07;;;;;;;;;32.67;31.00;;;;;;;;4991465;28;45467;-80
2022/01/18 07:11:32;;;;;;;;;35.67;30.67;;;;;;;;4990673;28;46883;-80
2022/01/18 07:13:57;;;;;;;;;29.25;27.25;;;;;;;;4976381;28;45516;-80
2022/01/18 07:16:23;;;;;;;;;32.33;27.33;;;;;;;;4993461;28;45857;-80
2022/01/18 07:18:48;;;;;;;;;32.00;26.00;;;;;;;;4991541;28;45680;-80
2022/01/18 07:21:13;;;;;;;;;36.33;31.33;;;;;;;;4997701;28;45605;-80
2022/01/18 07:23:38;;;;;;;;;31.00;27.00;;;;;;;;5008679;28;45279;-80
2022/01/18 07:26:04;;;;;;;;;27.75;25.00;;;;;;;;5008312;28;45141;-81
2022/01/18 07:28:29;;;;;;;;;34.50;28.50;;;;;;;;5008700;28;45463;-80
2022/01/18 07:30:55;;;;;;;;;36.00;30.33;;;;;;;;4990575;28;47811;-80
2022/01/18 07:33:20;;;;;;;;;34.33;30.00;;;;;;;;5009464;28;45291;-81
2022/01/18 07:35:46;;;;;;;;;34.33;32.00;;;;;;;;5012233;28;45408;-81
2022/01/18 07:38:15;;;;;;;;;39.00;29.75;;;;;;;;5011278;28;45365;-81
2022/01/18 07:40:41;;;;;;;;;36.75;31.00;;;;;;;;4994070;28;47725;-81
2022/01/18 07:43:06;;;;;;;;;36.75;33.00;;;;;;;;5005005;28;45944;-81
2022/01/18 07:45:32;;;;;;;;;28.00;24.25;;;;;;;;4992034;28;45543;-80
2022/01/18 07:47:57;;;;;;;;;32.00;29.00;;;;;;;;4992387;28;45499;-81
2022/01/18 07:50:22;;;;;;;;;27.00;25.33;;;;;;;;4976458;28;47343;-81
2022/01/18 07:52:48;;;;;;;;;32.00;27.50;;;;;;;;5005185;28;45137;-81
2022/01/18 07:55:13;;;;;;;;;33.50;28.00;;;;;;;;5004985;28;45458;-81
2022/01/18 07:57:42;;;;;;;;;27.67;22.00;;;;;;;;5005918;28;45334;-80
2022/01/18 08:00:08;;;;;;;;;35.75;28.25;;;;;;;;5010717;28;45704;-80
2022/01/18 08:02:36;;;;;;;;;19.00;17.50;;;;;;;;5000934;28;45444;-80
2022/01/18 08:05:01;;;;;;;;;30.25;26.00;;;;;;;;5001400;28;45233;-80
2022/01/18 08:07:26;;;;;;;;;27.67;26.33;;;;;;;;5000784;28;45341;-80
2022/01/18 08:09:51;;;;;;;;;30.67;26.00;;;;;;;;5001660;28;46729;-80
2022/01/18 08:12:17;;;;;;;;;28.33;26.00;;;;;;;;5001467;28;45523;-80
2022/01/18 08:14:46;;;;;;;;;32.75;28.75;;;;;;;;5001576;28;45340;-80
2022/01/18 08:17:11;;;;;;;;;32.75;30.00;;;;;;;;5010682;28;44859;-81
2022/01/18 08:19:36;;;;;;;;;37.00;31.00;;;;;;;;5011522;28;45333;-80
2022/01/18 08:22:02;;;;;;;;;25.33;23.00;;;;;;;;4993081;28;44998;-80
2022/01/18 08:24:27;;;;;;;;;32.25;30.25;;;;;;;;5010755;28;45269;-80
2022/01/18 08:26:53;;;;;;;;;33.75;27.00;;;;;;;;5011432;28;45204;-80
2022/01/18 08:29:19;;;;;;;;;27.50;27.50;;;;;;;;5011004;28;45357;-81
2022/01/18 08:31:44;;;;;;;;;36.50;32.75;;;;;;;;5009729;28;45046;-80
2022/01/18 08:34:09;;;;;;;;;33.25;29.25;;;;;;;;5003482;28;45169;-80
2022/01/18 08:36:35;;;;;;;;;36.00;27.00;;;;;;;;5006167;28;45620;-80
2022/01/18 08:39:01;;;;;;;;;27.75;25.75;;;;;;;;5005683;28;45865;-80
2022/01/18 08:41:27;;;;;;;;;30.00;27.75;;;;;;;;4997567;28;45439;-80
2022/01/18 08:43:53;;;;;;;;;30.25;28.00;;;;;;;;4994927;28;45474;-80
2022/01/18 08:46:18;;;;;;;;;31.50;30.00;;;;;;;;4976837;28;45549;-80
2022/01/18 08:48:43;;;;;;;;;32.25;31.25;;;;;;;;4999998;28;45877;-80
2022/01/18 08:51:09;;;;;;;;;34.33;31.33;;;;;;;;4995680;28;45499;-80
2022/01/18 08:53:35;;;;;;;;;38.75;34.75;;;;;;;;4998507;28;45439;-80
2022/01/18 08:56:00;;;;;;;;;39.50;35.75;;;;;;;;4996670;28;45361;-81
2022/01/18 08:58:26;;;;;;;;;40.00;36.00;;;;;;;;4985189;28;46622;-80
2022/01/18 09:00:51;;;;;;;;;33.50;31.75;;;;;;;;5001926;28;45427;-81
2022/01/18 09:03:17;;;;;;;;;30.33;27.67;;;;;;;;5010540;28;45211;-80
2022/01/18 09:05:44;;;;;;;;;29.33;26.00;;;;;;;;5007452;28;45420;-81
2022/01/18 09:08:11;;;;;;;;;28.25;26.00;;;;;;;;5000440;28;45393;-80
2022/01/18 09:10:37;;;;;;;;;33.00;28.25;;;;;;;;4999603;28;45454;-80
2022/01/18 09:13:02;;;;;;;;;25.67;23.33;;;;;;;;4994127;28;45957;-80
2022/01/18 09:15:27;;;;;;;;;20.33;19.33;;;;;;;;4997540;28;45625;-81
2022/01/18 09:17:52;;;;;;;;;26.00;24.00;;;;;;;;5002300;28;45507;-80
2022/01/18 09:20:18;;;;;;;;;23.00;20.00;;;;;;;;5010333;28;44962;-80
2022/01/18 09:22:44;;;;;;;;;26.50;25.00;;;;;;;;5010210;28;45085;-81
2022/01/18 09:25:11;;;;;;;;;23.25;21.75;;;;;;;;5000608;28;45419;-81
2022/01/18 09:27:37;;;;;;;;;27.00;22.50;;;;;;;;5002843;28;45914;-81
2022/01/18 09:30:03;;;;;;;;;21.00;19.67;;;;;;;;5006739;28;45228;-81
2022/01/18 09:32:28;;;;;;;;;28.25;24.25;;;;;;;;5000755;28;45253;-80
2022/01/18 09:34:53;;;;;;;;;25.67;22.33;;;;;;;;4993595;28;45375;-81
2022/01/18 09:37:18;;;;;;;;;24.00;22.33;;;;;;;;4998261;28;45445;-81
2022/01/18 09:39:43;;;;;;;;;29.33;24.33;;;;;;;;5000906;28;45438;-81
2022/01/18 09:42:10;;;;;;;;;23.67;22.33;;;;;;;;5007655;28;45080;-80
2022/01/18 09:44:35;;;;;;;;;25.25;21.25;;;;;;;;5010248;28;45152;-81
2022/01/18 09:47:00;;;;;;;;;27.33;23.67;;;;;;;;5006326;28;45895;-81
2022/01/18 09:49:25;;;;;;;;;30.67;26.00;;;;;;;;4989961;28;45457;-80
2022/01/18 09:51:51;;;;;;;;;28.67;24.67;;;;;;;;5003653;28;45805;-81
2022/01/18 09:54:17;;;;;;;;;33.50;30.25;;;;;;;;4990790;28;45691;-80
2022/01/18 09:56:42;;;;;;;;;21.75;20.50;;;;;;;;4989717;28;45685;-80
2022/01/18 09:59:08;;;;;;;;;29.67;27.33;;;;;;;;4973282;28;45556;-81
2022/01/18 10:01:33;;;;;;;;;26.50;21.75;;;;;;;;5000027;28;45525;-81
2022/01/18 10:04:16;;;;;;;;;21.00;18.33;;;;;;;;4990506;28;45564;-81
2022/01/18 10:06:42;;;;;;;;;24.50;21.75;;;;;;;;4990826;28;45523;-81
2022/01/18 10:09:11;;;;;;;;;23.00;22.00;;;;;;;;4990112;28;45513;-81
2022/01/18 10:11:36;;;;;;;;;26.75;24.25;;;;;;;;4991262;28;45390;-81
2022/01/18 10:14:01;;;;;;;;;35.33;30.33;;;;;;;;4990883;28;45756;-81
2022/01/18 10:16:27;;;;;;;;;25.67;20.00;;;;;;;;4990457;28;46235;-81
2022/01/18 10:19:02;;;;;;;;;26.67;24.67;;;;;;;;4991079;28;45434;-80
2022/01/18 10:21:31;;;;;;;;;31.50;27.75;;;;;;;;4973142;28;45456;-81
2022/01/18 10:24:16;;;;;;;;;40.00;27.75;;;;;;;;4990264;28;45458;-81
2022/01/18 10:26:42;;;;;;;;;28.25;26.25;;;;;;;;4991121;28;46684;-81
2022/01/18 10:29:09;;;;;;;;;22.25;20.75;;;;;;;;4990639;28;45407;-81
2022/01/18 10:31:43;;;;;;;;;32.25;24.50;;;;;;;;4990445;28;45505;-81
2022/01/18 10:35:04;;;;;;;;;26.50;23.75;;;;;;;;4990367;28;45419;-81
2022/01/18 10:37:30;;;;;;;;;23.00;22.00;;;;;;;;4947503;28;46011;-81
2022/01/18 10:39:56;;;;;;;;;31.25;25.75;;;;;;;;4987712;28;45553;-81
2022/01/18 10:42:28;;;;;;;;;30.25;27.00;;;;;;;;4990254;28;45520;-81
2022/01/18 10:45:03;;;;;;;;;24.50;24.00;;;;;;;;4990438;28;45487;-80
2022/01/18 10:47:29;;;;;;;;;19.75;17.25;;;;;;;;4972663;28;47984;-81
2022/01/18 10:49:54;;;;;;;;;25.75;23.25;;;;;;;;4990522;28;45700;-81
2022/01/18 10:52:22;;;;;;;;;21.33;19.67;;;;;;;;4989345;28;45485;-81
2022/01/18 10:54:48;;;;;;;;;27.25;22.75;;;;;;;;4990679;28;45424;-81
2022/01/18 10:57:17;;;;;;;;;21.75;18.00;;;;;;;;4989949;28;48319;-81
2022/01/18 10:59:43;;;;;;;;;24.25;21.75;;;;;;;;4990348;28;45766;-81
2022/01/18 11:02:13;;;;;;;;;27.50;22.00;;;;;;;;4990372;28;45815;-81
2022/01/18 11:04:38;;;;;;;;;25.50;21.00;;;;;;;;4990681;28;45620;-81
2022/01/18 11:07:05;;;;;;;;;19.00;18.00;;;;;;;;4988111;28;46234;-81
2022/01/18 11:09:30;;;;;;;;;27.00;24.00;;;;;;;;4989851;28;45370;-80
2022/01/18 11:11:56;;;;;;;;;25.25;21.00;;;;;;;;4990276;28;45465;-81
2022/01/18 11:14:22;;;;;;;;;23.50;22.50;;;;;;;;4989798;28;45514;-79
2022/01/18 11:16:49;;;;;;;;;20.75;15.50;;;;;;;;4989875;28;46445;-79
2022/01/18 11:19:35;;;;;;;;;24.50;21.50;;;;;;;;4989853;28;45562;-79
2022/01/18 11:22:10;;;;;;;;;21.00;19.75;;;;;;;;4988335;28;45625;-79
2022/01/18 11:24:36;;;;;;;;;22.50;18.00;;;;;;;;4972158;28;45495;-79
2022/01/18 11:27:03;;;;;;;;;23.00;18.50;;;;;;;;4989963;28;46643;-79
2022/01/18 11:29:30;;;;;;;;;20.25;18.00;;;;;;;;4989089;28;45438;-78
2022/01/18 11:31:56;;;;;;;;;18.25;15.50;;;;;;;;4989835;28;45602;-79
2022/01/18 11:34:41;;;;;;;;;21.75;19.75;;;;;;;;4989474;28;45455;-81
2022/01/18 11:37:21;;;;;;;;;19.50;17.50;;;;;;;;4950537;28;45856;-80
2022/01/18 11:39:46;;;;;;;;;19.75;18.50;;;;;;;;4992988;28;45420;-81
2022/01/18 11:42:13;;;;;;;;;21.00;17.50;;;;;;;;4991209;28;45692;-79
2022/01/18 11:44:39;;;;;;;;;17.00;15.00;;;;;;;;4989625;28;45538;-80
2022/01/18 11:47:05;;;;;;;;;19.00;16.75;;;;;;;;4990431;28;45658;-81
2022/01/18 11:49:33;;;;;;;;;19.00;16.75;;;;;;;;4989524;28;45360;-81
2022/01/18 11:52:00;;;;;;;;;19.50;18.00;;;;;;;;4988544;28;45929;-81
2022/01/18 11:57:21;;;;;;;;;16.75;15.75;;;;;;;;4989462;28;45817;-81
2022/01/18 11:59:46;;;;;;;;;17.25;17.00;;;;;;;;4989719;28;46070;-81
2022/01/18 12:02:24;;;;;;;;;14.50;14.50;;;;;;;;4970804;28;45502;-81
2022/01/18 12:04:58;;;;;;;;;15.25;14.00;;;;;;;;4989508;28;45357;-81
2022/01/18 12:07:33;;;;;;;;;15.00;14.50;;;;;;;;4970182;28;47665;-81
2022/01/18 12:09:59;;;;;;;;;14.75;14.75;;;;;;;;4989607;28;45818;-82
2022/01/18 12:12:46;;;;;;;;;14.00;12.25;;;;;;;;4989222;28;45433;-81
2022/01/18 12:15:14;;;;;;;;;12.75;12.75;;;;;;;;4975954;28;45621;-81
2022/01/18 12:17:45;;;;;;;;;17.75;14.75;;;;;;;;4989178;28;45460;-81
2022/01/18 12:20:30;;;;;;;;;23.50;16.50;;;;;;;;4974248;28;45880;-81
2022/01/18 12:23:00;;;;;;;;;9.75;9.75;;;;;;;;4991396;28;45352;-79
2022/01/18 12:25:26;;;;;;;;;13.00;11.00;;;;;;;;4992654;28;45599;-81
2022/01/18 12:27:55;;;;;;;;;15.00;15.00;;;;;;;;4992872;28;46401;-81
2022/01/18 12:31:05;;;;;;;;;10.25;9.75;;;;;;;;4974052;28;47025;-81
2022/01/18 12:33:18;;;;;;;;;9.25;8.75;;;;;;;;4969586;28;45456;-81
2022/01/18 12:35:44;;;;;;;;;9.50;7.75;;;;;;;;4973659;28;45493;-79
2022/01/18 12:38:12;;;;;;;;;8.25;7.50;;;;;;;;4972162;28;46417;-80
2022/01/18 12:40:42;;;;;;;;;7.25;5.50;;;;;;;;4974414;28;45922;-80
2022/01/18 12:45:36;;;;;;;;;7.00;5.25;;;;;;;;4992407;28;45367;-81
2022/01/18 12:48:02;;;;;;;;;8.75;8.00;;;;;;;;4974332;28;48090;-81
2022/01/18 12:50:35;;;;;;;;;8.50;8.00;;;;;;;;4992166;28;45840;-81
2022/01/18 12:53:00;;;;;;;;;11.00;10.00;;;;;;;;4974435;28;45413;-82
2022/01/18 12:55:28;;;;;;;;;7.00;7.00;;;;;;;;4995997;28;45651;-81
2022/01/18 12:58:00;;;;;;;;;10.75;9.00;;;;;;;;4992675;28;45890;-81
2022/01/18 13:00:25;;;;;;;;;8.00;7.25;;;;;;;;4992011;28;45904;-81
2022/01/18 13:02:51;;;;;;;;;9.67;9.00;;;;;;;;4992648;28;45457;-81
2022/01/18 13:05:16;;;;;;;;;11.00;10.00;;;;;;;;4991953;28;45327;-81
2022/01/18 13:07:48;;;;;;;;;10.33;8.00;;;;;;;;4991528;28;45775;-81
2022/01/18 13:10:13;;;;;;;;;10.75;8.75;;;;;;;;4991897;28;45888;-81
2022/01/18 13:12:43;;;;;;;;;11.00;9.00;;;;;;;;4992600;28;45374;-81
2022/01/18 13:15:09;;;;;;;;;8.25;7.75;;;;;;;;4991541;28;45407;-81
2022/01/18 13:23:23;;;;;;;;;9.25;9.00;;;;;;;;4991624;28;44842;-81
2022/01/18 13:25:51;;;;;;;;;11.75;10.25;;;;;;;;4992143;28;45470;-81
2022/01/18 13:28:18;;;;;;;;;15.00;13.25;;;;;;;;4993770;28;45521;-80
2022/01/18 13:30:43;;;;;;;;;13.50;10.50;;;;;;;;4991154;28;45822;-80
2022/01/18 13:33:11;;;;;;;;;12.75;12.25;;;;;;;;4991249;28;45646;-80
2022/01/18 13:35:36;;;;;;;;;16.00;15.00;;;;;;;;4991278;28;45380;-80
2022/01/18 13:38:03;;;;;;;;;12.33;10.67;;;;;;;;4990735;28;45676;-80
2022/01/18 13:40:30;;;;;;;;;12.75;11.50;;;;;;;;4991435;28;45494;-81
2022/01/18 13:43:04;;;;;;;;;11.75;10.00;;;;;;;;4991558;28;45566;-80
2022/01/18 13:45:30;;;;;;;;;12.50;12.25;;;;;;;;4991607;28;45816;-80
2022/01/18 13:48:01;;;;;;;;;12.00;11.00;;;;;;;;4991483;28;45589;-81
2022/01/18 13:50:33;;;;;;;;;17.00;15.25;;;;;;;;4990670;28;45941;-81
2022/01/18 13:53:03;;;;;;;;;14.00;13.00;;;;;;;;4991057;28;45424;-80
2022/01/18 13:55:29;;;;;;;;;12.50;11.50;;;;;;;;4991408;28;45660;-81
2022/01/18 13:57:56;;;;;;;;;12.75;12.75;;;;;;;;4990817;28;45482;-81
2022/01/18 14:00:22;;;;;;;;;12.00;11.25;;;;;;;;4972235;28;46018;-81
2022/01/18 14:02:47;;;;;;;;;14.25;13.25;;;;;;;;4973259;28;45518;-81
2022/01/18 14:05:14;;;;;;;;;11.00;11.00;;;;;;;;4972856;28;45398;-81
2022/01/18 14:07:39;;;;;;;;;15.50;14.25;;;;;;;;4990776;28;46425;-80
2022/01/18 14:10:05;;;;;;;;;11.67;10.67;;;;;;;;4990896;28;45281;-80
2022/01/18 14:12:31;;;;;;;;;12.00;11.00;;;;;;;;4973010;28;45716;-80
2022/01/18 14:14:56;;;;;;;;;11.50;10.75;;;;;;;;4973313;28;45566;-80
2022/01/18 14:17:22;;;;;;;;;14.50;13.75;;;;;;;;4990709;28;45462;-80
2022/01/18 14:19:47;;;;;;;;;11.25;10.50;;;;;;;;4973061;28;46151;-80
2022/01/18 14:22:13;;;;;;;;;12.00;11.50;;;;;;;;4990479;28;45763;-82
2022/01/18 14:24:42;;;;;;;;;11.50;9.50;;;;;;;;4990930;28;45327;-81
2022/01/18 14:27:13;;;;;;;;;14.50;13.00;;;;;;;;4990178;28;47441;-80
2022/01/18 14:29:41;;;;;;;;;11.25;10.50;;;;;;;;4991062;28;45497;-80
2022/01/18 14:32:08;;;;;;;;;11.75;10.00;;;;;;;;4972759;28;45457;-81
2022/01/18 14:34:35;;;;;;;;;10.00;9.50;;;;;;;;4990724;28;45587;-81
2022/01/18 14:37:01;;;;;;;;;12.25;11.25;;;;;;;;4989781;28;46218;-80
2022/01/18 14:39:27;;;;;;;;;10.75;10.75;;;;;;;;4990476;28;45865;-81
2022/01/18 14:41:56;;;;;;;;;8.00;8.00;;;;;;;;4990240;28;45518;-80
2022/01/18 14:44:35;;;;;;;;;12.00;9.00;;;;;;;;4972773;28;46044;-80
2022/01/18 14:49:44;;;;;;;;;9.25;8.00;;;;;;;;4990599;28;45980;-80
2022/01/18 14:52:09;;;;;;;;;8.00;8.00;;;;;;;;4990006;28;45545;-80
2022/01/18 14:54:35;;;;;;;;;11.33;10.00;;;;;;;;4972879;28;45444;-81
2022/01/18 14:57:00;;;;;;;;;9.00;8.33;;;;;;;;4989523;28;47008;-80
2022/01/18 14:59:25;;;;;;;;;8.00;8.00;;;;;;;;4990387;28;45749;-80
2022/01/18 15:01:52;;;;;;;;;8.50;6.75;;;;;;;;4990578;28;45383;-80
2022/01/18 15:04:17;;;;;;;;;11.00;10.75;;;;;;;;4989796;28;45960;-80
2022/01/18 15:06:42;;;;;;;;;10.67;8.00;;;;;;;;4989966;28;46631;-80
2022/01/18 15:09:07;;;;;;;;;10.00;9.00;;;;;;;;4989948;28;45552;-80
2022/01/18 15:11:36;;;;;;;;;8.67;6.33;;;;;;;;4990158;28;45469;-80
2022/01/18 15:14:02;;;;;;;;;9.00;8.50;;;;;;;;4990210;28;45638;-80
2022/01/18 15:16:27;;;;;;;;;10.75;9.75;;;;;;;;4972085;28;47013;-81
2022/01/18 15:18:53;;;;;;;;;8.00;8.00;;;;;;;;4989805;28;45523;-80
2022/01/18 15:21:18;;;;;;;;;8.00;8.00;;;;;;;;4989590;28;45487;-80
2022/01/18 15:23:43;;;;;;;;;9.00;8.67;;;;;;;;4990345;28;45381;-81
2022/01/18 15:26:08;;;;;;;;;10.00;9.67;;;;;;;;4989447;28;45502;-80
2022/01/18 15:28:33;;;;;;;;;6.33;6.33;;;;;;;;4972545;28;45586;-80
2022/01/18 15:30:59;;;;;;;;;8.33;7.00;;;;;;;;4972254;28;45516;-80
2022/01/18 15:33:24;;;;;;;;;10.00;9.33;;;;;;;;4989506;28;45535;-81
2022/01/18 15:35:49;;;;;;;;;8.33;8.33;;;;;;;;4981010;28;47614;-80
2022/01/18 15:38:15;;;;;;;;;9.00;8.00;;;;;;;;5007012;28;45262;-81
2022/01/18 15:40:40;;;;;;;;;7.00;5.75;;;;;;;;5008203;28;45113;-81